sensor_id;sensor_type;location;lat;lon;timestamp;P1;durP1;ratioP1;P2;durP2;ratioP2
77591;SDS011;66891;46.884;17.436;2023-07-30T00:01:15;7.15;;;1.40;;
77591;SDS011;66891;46.884;17.436;2023-07-30T00:03:43;6.17;;;1.27;;
77591;SDS011;66891;46.884;17.436;2023-07-30T00:06:10;5.47;;;1.23;;
77591;SDS011;66891;46.884;17.436;2023-07-30T00:08:37;5.28;;;1.08;;
77591;SDS011;66891;46.884;17.436;2023-07-30T00:11:06;6.38;;;1.10;;
77591;SDS011;66891;46.884;17.436;2023-07-30T00:13:33;5.82;;;1.23;;
77591;SDS011;66891;46.884;17.436;2023-07-30T00:16:01;5.50;;;1.13;;
77591;SDS011;66891;46.884;17.436;2023-07-30T00:18:28;5.00;;;1.50;;
77591;SDS011;66891;46.884;17.436;2023-07-30T00:20:55;5.57;;;1.55;;
77591;SDS011;66891;46.884;17.436;2023-07-30T00:23:23;7.13;;;1.60;;
77591;SDS011;66891;46.884;17.436;2023-07-30T00:25:50;6.25;;;1.70;;
77591;SDS011;66891;46.884;17.436;2023-07-30T00:28:19;5.80;;;1.17;;
77591;SDS011;66891;46.884;17.436;2023-07-30T00:30:46;4.95;;;1.10;;
77591;SDS011;66891;46.884;17.436;2023-07-30T00:33:13;6.07;;;1.80;;
77591;SDS011;66891;46.884;17.436;2023-07-30T00:35:41;7.05;;;1.42;;
77591;SDS011;66891;46.884;17.436;2023-07-30T00:38:08;6.55;;;1.58;;
77591;SDS011;66891;46.884;17.436;2023-07-30T00:40:39;5.30;;;1.60;;
77591;SDS011;66891;46.884;17.436;2023-07-30T00:43:07;6.40;;;1.50;;
77591;SDS011;66891;46.884;17.436;2023-07-30T00:45:36;5.47;;;1.25;;
77591;SDS011;66891;46.884;17.436;2023-07-30T00:48:05;5.85;;;1.45;;
77591;SDS011;66891;46.884;17.436;2023-07-30T00:50:32;5.47;;;1.50;;
77591;SDS011;66891;46.884;17.436;2023-07-30T00:53:00;6.10;;;1.60;;
77591;SDS011;66891;46.884;17.436;2023-07-30T00:55:27;6.30;;;1.02;;
77591;SDS011;66891;46.884;17.436;2023-07-30T00:57:55;5.75;;;1.48;;
77591;SDS011;66891;46.884;17.436;2023-07-30T01:00:23;6.22;;;1.23;;
77591;SDS011;66891;46.884;17.436;2023-07-30T01:02:53;5.95;;;1.33;;
77591;SDS011;66891;46.884;17.436;2023-07-30T01:05:20;5.40;;;1.00;;
77591;SDS011;66891;46.884;17.436;2023-07-30T01:07:48;5.28;;;1.30;;
77591;SDS011;66891;46.884;17.436;2023-07-30T01:10:15;5.10;;;1.20;;
77591;SDS011;66891;46.884;17.436;2023-07-30T01:12:43;5.78;;;1.60;;
77591;SDS011;66891;46.884;17.436;2023-07-30T01:15:12;6.18;;;1.40;;
77591;SDS011;66891;46.884;17.436;2023-07-30T01:17:39;5.87;;;1.63;;
77591;SDS011;66891;46.884;17.436;2023-07-30T01:20:09;6.00;;;1.52;;
77591;SDS011;66891;46.884;17.436;2023-07-30T01:22:39;5.50;;;1.35;;
77591;SDS011;66891;46.884;17.436;2023-07-30T01:25:06;5.35;;;1.33;;
77591;SDS011;66891;46.884;17.436;2023-07-30T01:27:36;5.45;;;1.25;;
77591;SDS011;66891;46.884;17.436;2023-07-30T01:30:08;5.67;;;1.57;;
77591;SDS011;66891;46.884;17.436;2023-07-30T01:32:41;6.00;;;1.40;;
77591;SDS011;66891;46.884;17.436;2023-07-30T01:35:09;6.30;;;1.65;;
77591;SDS011;66891;46.884;17.436;2023-07-30T01:37:41;5.70;;;1.20;;
77591;SDS011;66891;46.884;17.436;2023-07-30T01:40:11;5.30;;;1.40;;
77591;SDS011;66891;46.884;17.436;2023-07-30T01:42:39;5.93;;;1.30;;
77591;SDS011;66891;46.884;17.436;2023-07-30T01:45:06;5.93;;;1.58;;
77591;SDS011;66891;46.884;17.436;2023-07-30T01:47:34;5.55;;;1.52;;
77591;SDS011;66891;46.884;17.436;2023-07-30T01:50:01;6.57;;;1.48;;
77591;SDS011;66891;46.884;17.436;2023-07-30T01:52:29;5.50;;;1.15;;
77591;SDS011;66891;46.884;17.436;2023-07-30T01:54:57;6.57;;;1.40;;
77591;SDS011;66891;46.884;17.436;2023-07-30T01:57:27;6.95;;;1.50;;
77591;SDS011;66891;46.884;17.436;2023-07-30T01:59:54;5.43;;;1.50;;
77591;SDS011;66891;46.884;17.436;2023-07-30T02:02:22;5.68;;;1.30;;
77591;SDS011;66891;46.884;17.436;2023-07-30T02:04:49;5.65;;;1.40;;
77591;SDS011;66891;46.884;17.436;2023-07-30T02:07:16;6.03;;;1.43;;
77591;SDS011;66891;46.884;17.436;2023-07-30T02:09:44;6.35;;;1.40;;
77591;SDS011;66891;46.884;17.436;2023-07-30T02:12:12;6.55;;;1.40;;
77591;SDS011;66891;46.884;17.436;2023-07-30T02:14:40;5.90;;;1.55;;
77591;SDS011;66891;46.884;17.436;2023-07-30T02:17:07;5.40;;;1.40;;
77591;SDS011;66891;46.884;17.436;2023-07-30T02:19:34;7.00;;;1.10;;
77591;SDS011;66891;46.884;17.436;2023-07-30T02:22:02;5.40;;;1.45;;
77591;SDS011;66891;46.884;17.436;2023-07-30T02:24:29;5.35;;;1.50;;
77591;SDS011;66891;46.884;17.436;2023-07-30T02:26:57;8.07;;;1.63;;
77591;SDS011;66891;46.884;17.436;2023-07-30T02:29:25;5.95;;;1.67;;
77591;SDS011;66891;46.884;17.436;2023-07-30T02:31:53;5.37;;;1.17;;
77591;SDS011;66891;46.884;17.436;2023-07-30T02:34:20;6.45;;;1.67;;
77591;SDS011;66891;46.884;17.436;2023-07-30T02:36:47;5.40;;;1.50;;
77591;SDS011;66891;46.884;17.436;2023-07-30T02:39:15;5.20;;;1.48;;
77591;SDS011;66891;46.884;17.436;2023-07-30T02:41:43;5.30;;;1.63;;
77591;SDS011;66891;46.884;17.436;2023-07-30T02:44:10;6.27;;;1.47;;
77591;SDS011;66891;46.884;17.436;2023-07-30T02:46:39;5.32;;;1.20;;
77591;SDS011;66891;46.884;17.436;2023-07-30T02:49:06;6.00;;;1.80;;
77591;SDS011;66891;46.884;17.436;2023-07-30T02:51:35;5.10;;;1.33;;
77591;SDS011;66891;46.884;17.436;2023-07-30T02:54:03;6.22;;;1.40;;
77591;SDS011;66891;46.884;17.436;2023-07-30T02:56:32;4.80;;;1.00;;
77591;SDS011;66891;46.884;17.436;2023-07-30T02:58:59;6.03;;;1.50;;
77591;SDS011;66891;46.884;17.436;2023-07-30T03:01:26;5.30;;;1.33;;
77591;SDS011;66891;46.884;17.436;2023-07-30T03:03:55;5.25;;;1.50;;
77591;SDS011;66891;46.884;17.436;2023-07-30T03:06:22;4.75;;;1.20;;
77591;SDS011;66891;46.884;17.436;2023-07-30T03:08:50;4.67;;;1.07;;
77591;SDS011;66891;46.884;17.436;2023-07-30T03:11:17;5.35;;;1.20;;
77591;SDS011;66891;46.884;17.436;2023-07-30T03:13:44;5.78;;;1.30;;
77591;SDS011;66891;46.884;17.436;2023-07-30T03:16:12;5.38;;;1.35;;
77591;SDS011;66891;46.884;17.436;2023-07-30T03:18:39;5.53;;;1.60;;
77591;SDS011;66891;46.884;17.436;2023-07-30T03:21:08;4.80;;;1.17;;
77591;SDS011;66891;46.884;17.436;2023-07-30T03:23:35;5.90;;;1.20;;
77591;SDS011;66891;46.884;17.436;2023-07-30T03:26:02;5.82;;;1.80;;
77591;SDS011;66891;46.884;17.436;2023-07-30T03:28:30;5.55;;;1.40;;
77591;SDS011;66891;46.884;17.436;2023-07-30T03:30:58;6.22;;;1.38;;
77591;SDS011;66891;46.884;17.436;2023-07-30T03:33:26;6.50;;;1.63;;
77591;SDS011;66891;46.884;17.436;2023-07-30T03:35:53;5.38;;;1.30;;
77591;SDS011;66891;46.884;17.436;2023-07-30T03:38:22;5.40;;;1.30;;
77591;SDS011;66891;46.884;17.436;2023-07-30T03:40:49;4.95;;;1.20;;
77591;SDS011;66891;46.884;17.436;2023-07-30T03:43:17;5.38;;;1.20;;
77591;SDS011;66891;46.884;17.436;2023-07-30T03:45:44;6.53;;;1.23;;
77591;SDS011;66891;46.884;17.436;2023-07-30T03:48:11;5.30;;;1.30;;
77591;SDS011;66891;46.884;17.436;2023-07-30T03:50:39;6.90;;;1.73;;
77591;SDS011;66891;46.884;17.436;2023-07-30T03:53:06;5.50;;;1.23;;
77591;SDS011;66891;46.884;17.436;2023-07-30T03:55:35;5.80;;;1.48;;
77591;SDS011;66891;46.884;17.436;2023-07-30T03:58:02;6.87;;;1.60;;
77591;SDS011;66891;46.884;17.436;2023-07-30T04:00:30;5.82;;;1.70;;
77591;SDS011;66891;46.884;17.436;2023-07-30T04:02:57;5.80;;;1.30;;
77591;SDS011;66891;46.884;17.436;2023-07-30T04:05:25;5.30;;;1.50;;
77591;SDS011;66891;46.884;17.436;2023-07-30T04:07:52;5.25;;;1.33;;
77591;SDS011;66891;46.884;17.436;2023-07-30T04:10:19;6.60;;;1.27;;
77591;SDS011;66891;46.884;17.436;2023-07-30T04:12:48;6.80;;;1.45;;
77591;SDS011;66891;46.884;17.436;2023-07-30T04:15:15;5.57;;;1.58;;
77591;SDS011;66891;46.884;17.436;2023-07-30T04:17:43;5.13;;;1.20;;
77591;SDS011;66891;46.884;17.436;2023-07-30T04:20:10;6.57;;;1.67;;
77591;SDS011;66891;46.884;17.436;2023-07-30T04:22:38;5.43;;;1.30;;
77591;SDS011;66891;46.884;17.436;2023-07-30T04:25:08;6.80;;;1.27;;
77591;SDS011;66891;46.884;17.436;2023-07-30T04:27:37;6.88;;;1.50;;
77591;SDS011;66891;46.884;17.436;2023-07-30T04:30:06;8.35;;;1.45;;
77591;SDS011;66891;46.884;17.436;2023-07-30T04:32:34;5.30;;;1.35;;
77591;SDS011;66891;46.884;17.436;2023-07-30T04:35:02;6.50;;;1.30;;
77591;SDS011;66891;46.884;17.436;2023-07-30T04:37:29;9.02;;;1.88;;
77591;SDS011;66891;46.884;17.436;2023-07-30T04:39:57;6.88;;;1.48;;
77591;SDS011;66891;46.884;17.436;2023-07-30T04:42:24;6.65;;;1.63;;
77591;SDS011;66891;46.884;17.436;2023-07-30T04:44:51;6.20;;;1.83;;
77591;SDS011;66891;46.884;17.436;2023-07-30T04:47:20;5.27;;;1.50;;
77591;SDS011;66891;46.884;17.436;2023-07-30T04:49:47;6.10;;;1.70;;
77591;SDS011;66891;46.884;17.436;2023-07-30T04:52:15;6.68;;;1.70;;
77591;SDS011;66891;46.884;17.436;2023-07-30T04:54:42;5.68;;;1.75;;
77591;SDS011;66891;46.884;17.436;2023-07-30T04:57:09;6.28;;;2.03;;
77591;SDS011;66891;46.884;17.436;2023-07-30T04:59:37;8.53;;;2.33;;
77591;SDS011;66891;46.884;17.436;2023-07-30T05:02:04;7.38;;;2.10;;
77591;SDS011;66891;46.884;17.436;2023-07-30T05:04:33;8.65;;;2.63;;
77591;SDS011;66891;46.884;17.436;2023-07-30T05:07:01;9.68;;;2.53;;
77591;SDS011;66891;46.884;17.436;2023-07-30T05:09:28;7.75;;;2.85;;
77591;SDS011;66891;46.884;17.436;2023-07-30T05:11:55;7.70;;;2.17;;
77591;SDS011;66891;46.884;17.436;2023-07-30T05:14:23;7.45;;;2.38;;
77591;SDS011;66891;46.884;17.436;2023-07-30T05:16:50;8.18;;;2.67;;
77591;SDS011;66891;46.884;17.436;2023-07-30T05:19:18;9.10;;;2.70;;
77591;SDS011;66891;46.884;17.436;2023-07-30T05:21:47;8.18;;;2.63;;
77591;SDS011;66891;46.884;17.436;2023-07-30T05:24:14;9.80;;;3.00;;
77591;SDS011;66891;46.884;17.436;2023-07-30T05:26:41;8.65;;;3.08;;
77591;SDS011;66891;46.884;17.436;2023-07-30T05:29:09;8.70;;;2.92;;
77591;SDS011;66891;46.884;17.436;2023-07-30T05:31:36;8.88;;;3.13;;
77591;SDS011;66891;46.884;17.436;2023-07-30T05:34:04;7.93;;;2.90;;
77591;SDS011;66891;46.884;17.436;2023-07-30T05:36:31;8.47;;;3.03;;
77591;SDS011;66891;46.884;17.436;2023-07-30T05:39:00;9.32;;;2.83;;
77591;SDS011;66891;46.884;17.436;2023-07-30T05:41:27;8.07;;;2.97;;
77591;SDS011;66891;46.884;17.436;2023-07-30T05:43:55;7.38;;;2.78;;
77591;SDS011;66891;46.884;17.436;2023-07-30T05:46:22;7.78;;;2.95;;
77591;SDS011;66891;46.884;17.436;2023-07-30T05:48:49;8.50;;;2.67;;
77591;SDS011;66891;46.884;17.436;2023-07-30T05:51:17;9.05;;;2.80;;
77591;SDS011;66891;46.884;17.436;2023-07-30T05:53:44;7.22;;;2.30;;
77591;SDS011;66891;46.884;17.436;2023-07-30T05:56:13;7.18;;;2.45;;
77591;SDS011;66891;46.884;17.436;2023-07-30T05:58:40;7.43;;;2.65;;
77591;SDS011;66891;46.884;17.436;2023-07-30T06:01:10;9.70;;;2.73;;
77591;SDS011;66891;46.884;17.436;2023-07-30T06:03:41;7.80;;;2.30;;
77591;SDS011;66891;46.884;17.436;2023-07-30T06:06:08;8.23;;;2.65;;
77591;SDS011;66891;46.884;17.436;2023-07-30T06:08:36;6.35;;;2.20;;
77591;SDS011;66891;46.884;17.436;2023-07-30T06:11:03;8.05;;;1.95;;
77591;SDS011;66891;46.884;17.436;2023-07-30T06:13:32;6.47;;;1.93;;
77591;SDS011;66891;46.884;17.436;2023-07-30T06:15:59;6.75;;;2.08;;
77591;SDS011;66891;46.884;17.436;2023-07-30T06:18:27;5.88;;;1.83;;
77591;SDS011;66891;46.884;17.436;2023-07-30T06:20:56;6.05;;;1.80;;
77591;SDS011;66891;46.884;17.436;2023-07-30T06:23:23;6.72;;;2.30;;
77591;SDS011;66891;46.884;17.436;2023-07-30T06:25:51;7.07;;;2.27;;
77591;SDS011;66891;46.884;17.436;2023-07-30T06:28:18;6.47;;;2.10;;
77591;SDS011;66891;46.884;17.436;2023-07-30T06:30:47;7.47;;;2.75;;
77591;SDS011;66891;46.884;17.436;2023-07-30T06:33:14;8.43;;;2.67;;
77591;SDS011;66891;46.884;17.436;2023-07-30T06:35:41;8.70;;;2.58;;
77591;SDS011;66891;46.884;17.436;2023-07-30T06:38:09;6.73;;;2.53;;
77591;SDS011;66891;46.884;17.436;2023-07-30T06:40:36;7.35;;;2.60;;
77591;SDS011;66891;46.884;17.436;2023-07-30T06:43:05;6.95;;;3.08;;
77591;SDS011;66891;46.884;17.436;2023-07-30T06:45:32;7.90;;;3.25;;
77591;SDS011;66891;46.884;17.436;2023-07-30T06:48:01;8.55;;;3.20;;
77591;SDS011;66891;46.884;17.436;2023-07-30T06:50:28;8.07;;;3.07;;
77591;SDS011;66891;46.884;17.436;2023-07-30T06:52:56;6.85;;;2.78;;
77591;SDS011;66891;46.884;17.436;2023-07-30T06:55:23;7.78;;;2.97;;
77591;SDS011;66891;46.884;17.436;2023-07-30T06:57:50;6.85;;;2.78;;
77591;SDS011;66891;46.884;17.436;2023-07-30T07:00:18;8.45;;;3.10;;
77591;SDS011;66891;46.884;17.436;2023-07-30T07:02:48;6.10;;;2.30;;
77591;SDS011;66891;46.884;17.436;2023-07-30T07:05:17;7.03;;;2.40;;
77591;SDS011;66891;46.884;17.436;2023-07-30T07:07:45;7.70;;;2.83;;
77591;SDS011;66891;46.884;17.436;2023-07-30T07:10:12;7.90;;;2.60;;
77591;SDS011;66891;46.884;17.436;2023-07-30T07:12:40;7.20;;;2.70;;
77591;SDS011;66891;46.884;17.436;2023-07-30T07:15:08;6.93;;;2.60;;
77591;SDS011;66891;46.884;17.436;2023-07-30T07:17:35;6.72;;;2.70;;
77591;SDS011;66891;46.884;17.436;2023-07-30T07:20:03;6.60;;;2.38;;
77591;SDS011;66891;46.884;17.436;2023-07-30T07:22:35;7.63;;;2.67;;
77591;SDS011;66891;46.884;17.436;2023-07-30T07:25:02;8.80;;;2.70;;
77591;SDS011;66891;46.884;17.436;2023-07-30T07:27:30;8.10;;;2.60;;
77591;SDS011;66891;46.884;17.436;2023-07-30T07:29:57;7.10;;;2.40;;
77591;SDS011;66891;46.884;17.436;2023-07-30T07:32:24;7.10;;;2.72;;
77591;SDS011;66891;46.884;17.436;2023-07-30T07:34:52;7.10;;;2.67;;
77591;SDS011;66891;46.884;17.436;2023-07-30T07:37:19;7.50;;;3.00;;
77591;SDS011;66891;46.884;17.436;2023-07-30T07:39:48;6.77;;;2.30;;
77591;SDS011;66891;46.884;17.436;2023-07-30T07:42:15;8.07;;;3.20;;
77591;SDS011;66891;46.884;17.436;2023-07-30T07:44:43;6.40;;;2.42;;
77591;SDS011;66891;46.884;17.436;2023-07-30T07:47:13;6.80;;;2.33;;
77591;SDS011;66891;46.884;17.436;2023-07-30T07:49:40;7.15;;;2.50;;
77591;SDS011;66891;46.884;17.436;2023-07-30T07:52:07;5.70;;;2.17;;
77591;SDS011;66891;46.884;17.436;2023-07-30T07:54:35;7.50;;;2.55;;
77591;SDS011;66891;46.884;17.436;2023-07-30T07:57:04;6.38;;;1.92;;
77591;SDS011;66891;46.884;17.436;2023-07-30T07:59:31;7.40;;;2.70;;
77591;SDS011;66891;46.884;17.436;2023-07-30T08:01:58;8.80;;;3.20;;
77591;SDS011;66891;46.884;17.436;2023-07-30T08:04:26;7.27;;;2.70;;
77591;SDS011;66891;46.884;17.436;2023-07-30T08:06:53;9.57;;;2.90;;
77591;SDS011;66891;46.884;17.436;2023-07-30T08:09:21;9.65;;;3.42;;
77591;SDS011;66891;46.884;17.436;2023-07-30T08:11:48;8.65;;;3.45;;
77591;SDS011;66891;46.884;17.436;2023-07-30T08:14:17;7.95;;;3.13;;
77591;SDS011;66891;46.884;17.436;2023-07-30T08:16:47;9.17;;;3.20;;
77591;SDS011;66891;46.884;17.436;2023-07-30T08:19:15;8.60;;;3.95;;
77591;SDS011;66891;46.884;17.436;2023-07-30T08:21:42;9.25;;;3.97;;
77591;SDS011;66891;46.884;17.436;2023-07-30T08:24:09;8.57;;;3.30;;
77591;SDS011;66891;46.884;17.436;2023-07-30T08:26:37;7.32;;;3.10;;
77591;SDS011;66891;46.884;17.436;2023-07-30T08:29:05;8.60;;;3.20;;
77591;SDS011;66891;46.884;17.436;2023-07-30T08:31:34;8.25;;;3.50;;
77591;SDS011;66891;46.884;17.436;2023-07-30T08:34:02;7.65;;;2.92;;
77591;SDS011;66891;46.884;17.436;2023-07-30T08:36:29;7.25;;;2.90;;
77591;SDS011;66891;46.884;17.436;2023-07-30T08:38:57;7.35;;;2.70;;
77591;SDS011;66891;46.884;17.436;2023-07-30T08:41:24;7.57;;;2.60;;
77591;SDS011;66891;46.884;17.436;2023-07-30T08:43:52;8.07;;;2.63;;
77591;SDS011;66891;46.884;17.436;2023-07-30T08:46:19;7.22;;;2.85;;
77591;SDS011;66891;46.884;17.436;2023-07-30T08:48:48;6.68;;;2.90;;
77591;SDS011;66891;46.884;17.436;2023-07-30T08:51:16;6.78;;;2.65;;
77591;SDS011;66891;46.884;17.436;2023-07-30T08:53:45;7.43;;;2.70;;
77591;SDS011;66891;46.884;17.436;2023-07-30T08:56:13;7.32;;;2.42;;
77591;SDS011;66891;46.884;17.436;2023-07-30T08:58:41;6.40;;;2.45;;
77591;SDS011;66891;46.884;17.436;2023-07-30T09:01:10;8.20;;;3.30;;
77591;SDS011;66891;46.884;17.436;2023-07-30T09:03:41;7.82;;;3.05;;
77591;SDS011;66891;46.884;17.436;2023-07-30T09:06:10;7.83;;;2.63;;
77591;SDS011;66891;46.884;17.436;2023-07-30T09:08:37;7.25;;;2.90;;
77591;SDS011;66891;46.884;17.436;2023-07-30T09:11:07;7.35;;;3.50;;
77591;SDS011;66891;46.884;17.436;2023-07-30T09:13:36;7.55;;;3.30;;
77591;SDS011;66891;46.884;17.436;2023-07-30T09:16:08;8.35;;;3.88;;
77591;SDS011;66891;46.884;17.436;2023-07-30T09:18:38;7.97;;;3.40;;
77591;SDS011;66891;46.884;17.436;2023-07-30T09:21:06;8.85;;;3.80;;
77591;SDS011;66891;46.884;17.436;2023-07-30T09:23:40;7.85;;;3.58;;
77591;SDS011;66891;46.884;17.436;2023-07-30T09:26:08;8.15;;;4.53;;
77591;SDS011;66891;46.884;17.436;2023-07-30T09:28:36;9.25;;;4.47;;
77591;SDS011;66891;46.884;17.436;2023-07-30T09:31:04;9.40;;;4.27;;
77591;SDS011;66891;46.884;17.436;2023-07-30T09:33:47;9.98;;;4.10;;
77591;SDS011;66891;46.884;17.436;2023-07-30T09:36:14;7.40;;;3.70;;
77591;SDS011;66891;46.884;17.436;2023-07-30T09:38:47;7.20;;;2.60;;
77591;SDS011;66891;46.884;17.436;2023-07-30T09:41:16;7.20;;;2.72;;
77591;SDS011;66891;46.884;17.436;2023-07-30T09:43:43;7.00;;;2.73;;
77591;SDS011;66891;46.884;17.436;2023-07-30T09:46:11;7.40;;;2.50;;
77591;SDS011;66891;46.884;17.436;2023-07-30T09:48:39;7.13;;;2.65;;
77591;SDS011;66891;46.884;17.436;2023-07-30T09:51:06;6.20;;;2.33;;
77591;SDS011;66891;46.884;17.436;2023-07-30T09:53:35;6.43;;;2.72;;
77591;SDS011;66891;46.884;17.436;2023-07-30T09:56:04;6.30;;;1.83;;
77591;SDS011;66891;46.884;17.436;2023-07-30T09:58:35;7.07;;;2.67;;
77591;SDS011;66891;46.884;17.436;2023-07-30T10:01:04;7.00;;;2.72;;
77591;SDS011;66891;46.884;17.436;2023-07-30T10:03:32;7.35;;;3.80;;
77591;SDS011;66891;46.884;17.436;2023-07-30T10:06:02;7.70;;;3.95;;
77591;SDS011;66891;46.884;17.436;2023-07-30T10:08:31;8.67;;;4.47;;
77591;SDS011;66891;46.884;17.436;2023-07-30T10:11:02;8.05;;;4.18;;
77591;SDS011;66891;46.884;17.436;2023-07-30T10:13:34;8.45;;;3.75;;
77591;SDS011;66891;46.884;17.436;2023-07-30T10:16:03;7.22;;;3.17;;
77591;SDS011;66891;46.884;17.436;2023-07-30T10:18:37;7.38;;;3.75;;
77591;SDS011;66891;46.884;17.436;2023-07-30T10:21:07;8.20;;;3.80;;
77591;SDS011;66891;46.884;17.436;2023-07-30T10:23:36;7.75;;;3.67;;
77591;SDS011;66891;46.884;17.436;2023-07-30T10:26:14;8.50;;;4.40;;
77591;SDS011;66891;46.884;17.436;2023-07-30T10:28:41;7.97;;;3.80;;
77591;SDS011;66891;46.884;17.436;2023-07-30T10:31:10;6.90;;;2.72;;
77591;SDS011;66891;46.884;17.436;2023-07-30T10:33:44;5.87;;;2.00;;
77591;SDS011;66891;46.884;17.436;2023-07-30T10:36:12;5.78;;;2.20;;
77591;SDS011;66891;46.884;17.436;2023-07-30T10:38:40;7.43;;;2.15;;
77591;SDS011;66891;46.884;17.436;2023-07-30T10:41:09;6.90;;;2.97;;
77591;SDS011;66891;46.884;17.436;2023-07-30T10:43:40;6.43;;;2.50;;
77591;SDS011;66891;46.884;17.436;2023-07-30T10:46:09;6.40;;;2.30;;
77591;SDS011;66891;46.884;17.436;2023-07-30T10:48:38;6.82;;;2.20;;
77591;SDS011;66891;46.884;17.436;2023-07-30T10:51:08;5.20;;;2.03;;
77591;SDS011;66891;46.884;17.436;2023-07-30T10:53:36;5.68;;;2.08;;
77591;SDS011;66891;46.884;17.436;2023-07-30T10:56:04;5.50;;;2.10;;
77591;SDS011;66891;46.884;17.436;2023-07-30T10:58:33;5.93;;;2.13;;
77591;SDS011;66891;46.884;17.436;2023-07-30T11:01:03;5.10;;;1.65;;
77591;SDS011;66891;46.884;17.436;2023-07-30T11:03:32;5.57;;;1.98;;
77591;SDS011;66891;46.884;17.436;2023-07-30T11:06:00;6.72;;;2.40;;
77591;SDS011;66891;46.884;17.436;2023-07-30T11:08:32;6.63;;;2.38;;
77591;SDS011;66891;46.884;17.436;2023-07-30T11:11:00;6.17;;;2.10;;
77591;SDS011;66891;46.884;17.436;2023-07-30T11:13:28;6.70;;;2.17;;
77591;SDS011;66891;46.884;17.436;2023-07-30T11:15:55;5.70;;;2.40;;
77591;SDS011;66891;46.884;17.436;2023-07-30T11:18:24;5.05;;;1.50;;
77591;SDS011;66891;46.884;17.436;2023-07-30T11:20:51;5.25;;;1.60;;
77591;SDS011;66891;46.884;17.436;2023-07-30T11:23:20;5.67;;;1.57;;
77591;SDS011;66891;46.884;17.436;2023-07-30T11:25:48;5.07;;;1.70;;
77591;SDS011;66891;46.884;17.436;2023-07-30T11:28:28;6.88;;;2.15;;
77591;SDS011;66891;46.884;17.436;2023-07-30T11:30:59;5.70;;;1.83;;
77591;SDS011;66891;46.884;17.436;2023-07-30T11:33:29;5.40;;;2.00;;
77591;SDS011;66891;46.884;17.436;2023-07-30T11:35:57;5.30;;;1.67;;
77591;SDS011;66891;46.884;17.436;2023-07-30T11:38:27;5.55;;;1.70;;
77591;SDS011;66891;46.884;17.436;2023-07-30T11:40:56;5.63;;;1.88;;
77591;SDS011;66891;46.884;17.436;2023-07-30T11:43:24;5.80;;;1.92;;
77591;SDS011;66891;46.884;17.436;2023-07-30T11:46:05;5.10;;;1.77;;
77591;SDS011;66891;46.884;17.436;2023-07-30T11:48:39;5.00;;;1.80;;
77591;SDS011;66891;46.884;17.436;2023-07-30T11:51:07;5.55;;;1.88;;
77591;SDS011;66891;46.884;17.436;2023-07-30T11:53:50;5.18;;;1.95;;
77591;SDS011;66891;46.884;17.436;2023-07-30T11:56:19;5.03;;;1.85;;
77591;SDS011;66891;46.884;17.436;2023-07-30T11:58:49;5.78;;;2.30;;
77591;SDS011;66891;46.884;17.436;2023-07-30T12:01:17;5.77;;;2.47;;
77591;SDS011;66891;46.884;17.436;2023-07-30T12:03:47;5.43;;;2.17;;
77591;SDS011;66891;46.884;17.436;2023-07-30T12:06:14;5.40;;;2.60;;
77591;SDS011;66891;46.884;17.436;2023-07-30T12:08:42;6.00;;;2.60;;
77591;SDS011;66891;46.884;17.436;2023-07-30T12:11:09;5.97;;;2.10;;
77591;SDS011;66891;46.884;17.436;2023-07-30T12:13:43;6.03;;;1.57;;
77591;SDS011;66891;46.884;17.436;2023-07-30T12:16:17;4.97;;;1.95;;
77591;SDS011;66891;46.884;17.436;2023-07-30T12:18:49;6.13;;;2.58;;
77591;SDS011;66891;46.884;17.436;2023-07-30T12:21:16;5.72;;;2.20;;
77591;SDS011;66891;46.884;17.436;2023-07-30T12:23:43;5.10;;;1.83;;
77591;SDS011;66891;46.884;17.436;2023-07-30T12:26:11;5.60;;;2.20;;
77591;SDS011;66891;46.884;17.436;2023-07-30T12:28:38;5.65;;;2.00;;
77591;SDS011;66891;46.884;17.436;2023-07-30T12:31:05;7.07;;;3.90;;
77591;SDS011;66891;46.884;17.436;2023-07-30T12:33:33;8.70;;;4.95;;
77591;SDS011;66891;46.884;17.436;2023-07-30T12:36:02;7.32;;;4.07;;
77591;SDS011;66891;46.884;17.436;2023-07-30T12:38:32;8.37;;;4.13;;
77591;SDS011;66891;46.884;17.436;2023-07-30T12:41:01;5.88;;;3.05;;
77591;SDS011;66891;46.884;17.436;2023-07-30T12:43:28;6.93;;;2.65;;
77591;SDS011;66891;46.884;17.436;2023-07-30T12:45:56;5.72;;;2.17;;
77591;SDS011;66891;46.884;17.436;2023-07-30T12:48:23;6.65;;;3.35;;
77591;SDS011;66891;46.884;17.436;2023-07-30T12:50:51;5.90;;;2.50;;
77591;SDS011;66891;46.884;17.436;2023-07-30T12:53:20;5.85;;;2.55;;
77591;SDS011;66891;46.884;17.436;2023-07-30T12:55:47;5.47;;;3.05;;
77591;SDS011;66891;46.884;17.436;2023-07-30T12:58:14;5.82;;;2.75;;
77591;SDS011;66891;46.884;17.436;2023-07-30T13:00:42;6.22;;;3.45;;
77591;SDS011;66891;46.884;17.436;2023-07-30T13:03:09;5.43;;;1.97;;
77591;SDS011;66891;46.884;17.436;2023-07-30T13:05:37;5.50;;;2.33;;
77591;SDS011;66891;46.884;17.436;2023-07-30T13:08:04;6.15;;;2.88;;
77591;SDS011;66891;46.884;17.436;2023-07-30T13:10:33;5.10;;;2.25;;
77591;SDS011;66891;46.884;17.436;2023-07-30T13:13:00;5.50;;;2.45;;
77591;SDS011;66891;46.884;17.436;2023-07-30T13:15:27;5.33;;;1.90;;
77591;SDS011;66891;46.884;17.436;2023-07-30T13:17:58;5.60;;;2.65;;
77591;SDS011;66891;46.884;17.436;2023-07-30T13:20:26;6.18;;;3.00;;
77591;SDS011;66891;46.884;17.436;2023-07-30T13:22:53;6.00;;;2.45;;
77591;SDS011;66891;46.884;17.436;2023-07-30T13:25:20;5.47;;;2.20;;
77591;SDS011;66891;46.884;17.436;2023-07-30T13:27:49;5.30;;;1.97;;
77591;SDS011;66891;46.884;17.436;2023-07-30T13:30:16;6.88;;;2.50;;
77591;SDS011;66891;46.884;17.436;2023-07-30T13:32:44;5.05;;;2.13;;
77591;SDS011;66891;46.884;17.436;2023-07-30T13:35:11;5.05;;;1.98;;
77591;SDS011;66891;46.884;17.436;2023-07-30T13:37:38;5.43;;;2.60;;
77591;SDS011;66891;46.884;17.436;2023-07-30T13:40:06;5.53;;;2.13;;
77591;SDS011;66891;46.884;17.436;2023-07-30T13:42:34;6.13;;;2.20;;
77591;SDS011;66891;46.884;17.436;2023-07-30T13:45:03;5.40;;;2.25;;
77591;SDS011;66891;46.884;17.436;2023-07-30T13:47:32;5.72;;;2.20;;
77591;SDS011;66891;46.884;17.436;2023-07-30T13:49:59;6.43;;;2.22;;
77591;SDS011;66891;46.884;17.436;2023-07-30T13:52:26;5.10;;;1.80;;
77591;SDS011;66891;46.884;17.436;2023-07-30T13:59:00;5.95;;;2.55;;
77591;SDS011;66891;46.884;17.436;2023-07-30T14:01:29;5.15;;;1.90;;
77591;SDS011;66891;46.884;17.436;2023-07-30T14:03:56;6.78;;;2.90;;
77591;SDS011;66891;46.884;17.436;2023-07-30T14:06:24;5.70;;;1.90;;
77591;SDS011;66891;46.884;17.436;2023-07-30T14:08:51;5.45;;;2.05;;
77591;SDS011;66891;46.884;17.436;2023-07-30T14:11:18;5.43;;;2.25;;
77591;SDS011;66891;46.884;17.436;2023-07-30T14:13:46;5.65;;;2.30;;
77591;SDS011;66891;46.884;17.436;2023-07-30T14:16:13;5.95;;;2.30;;
77591;SDS011;66891;46.884;17.436;2023-07-30T14:18:42;5.57;;;2.10;;
77591;SDS011;66891;46.884;17.436;2023-07-30T14:21:09;4.85;;;1.40;;
77591;SDS011;66891;46.884;17.436;2023-07-30T14:23:38;5.47;;;2.10;;
77591;SDS011;66891;46.884;17.436;2023-07-30T14:26:05;5.20;;;2.00;;
77591;SDS011;66891;46.884;17.436;2023-07-30T14:28:33;5.70;;;2.42;;
77591;SDS011;66891;46.884;17.436;2023-07-30T14:31:01;5.50;;;2.30;;
77591;SDS011;66891;46.884;17.436;2023-07-30T14:33:28;5.60;;;2.38;;
77591;SDS011;66891;46.884;17.436;2023-07-30T14:35:57;5.30;;;2.20;;
77591;SDS011;66891;46.884;17.436;2023-07-30T14:38:24;5.43;;;2.08;;
77591;SDS011;66891;46.884;17.436;2023-07-30T14:40:52;5.78;;;2.45;;
77591;SDS011;66891;46.884;17.436;2023-07-30T14:43:19;5.63;;;1.90;;